Kedgwick, Canada
Current Conditions -  °F | °C
As of 6:53 PM on Tuesday 21 Oct 2014 (Local Time) from KFVE Reporting Station
Overcast Overcast  
Wind Chill: 41°   Ceiling: 11000
Heat Index: 41°   Visibility: 10mi
Dew Point: 26°   Wind: 0mph
Humidity: 55%   Direction: NA
Pressure: 30.17"   Gusts: NA
Location:  47.63°N, 67.33°W
Report Text: KFVE 212153Z AUTO 00000KT 10SM SCT070 OVC110 05/M03 A3017 RMK AO2 SLP226 T00501033
Loading
Personal Weather Stations






























Interactive Weather Map
Tropical Storm Tracking
New forecast layout! Learn more

10-Day Weather Forecast

Advertisements
Track Severe Weather on mobile